sensor_id;sensor_type;location;lat;lon;timestamp;temperature;humidity
3919;DHT22;1974;48.670;8.994;2023-08-07T00:00:37;10.70;99.90
3919;DHT22;1974;48.670;8.994;2023-08-07T00:03:03;10.70;99.90
3919;DHT22;1974;48.670;8.994;2023-08-07T00:05:30;10.70;99.90
3919;DHT22;1974;48.670;8.994;2023-08-07T00:07:57;10.80;99.90
3919;DHT22;1974;48.670;8.994;2023-08-07T00:10:25;10.70;99.90
3919;DHT22;1974;48.670;8.994;2023-08-07T00:12:52;10.70;99.90
3919;DHT22;1974;48.670;8.994;2023-08-07T00:15:19;10.70;99.90
3919;DHT22;1974;48.670;8.994;2023-08-07T00:17:45;10.70;99.90
3919;DHT22;1974;48.670;8.994;2023-08-07T00:20:12;10.70;99.90
3919;DHT22;1974;48.670;8.994;2023-08-07T00:22:39;10.70;99.90
3919;DHT22;1974;48.670;8.994;2023-08-07T00:25:06;10.70;99.90
3919;DHT22;1974;48.670;8.994;2023-08-07T00:27:34;10.70;99.90
3919;DHT22;1974;48.670;8.994;2023-08-07T00:30:01;10.80;99.90
3919;DHT22;1974;48.670;8.994;2023-08-07T00:32:28;10.80;99.90
3919;DHT22;1974;48.670;8.994;2023-08-07T00:34:55;10.80;99.90
3919;DHT22;1974;48.670;8.994;2023-08-07T00:37:23;10.80;99.90
3919;DHT22;1974;48.670;8.994;2023-08-07T00:39:49;11.00;99.90
3919;DHT22;1974;48.670;8.994;2023-08-07T00:42:16;10.90;99.90
3919;DHT22;1974;48.670;8.994;2023-08-07T00:44:44;10.80;99.90
3919;DHT22;1974;48.670;8.994;2023-08-07T00:47:11;10.80;99.90
3919;DHT22;1974;48.670;8.994;2023-08-07T00:49:38;10.80;99.90
3919;DHT22;1974;48.670;8.994;2023-08-07T00:52:06;10.80;99.90
3919;DHT22;1974;48.670;8.994;2023-08-07T00:54:33;10.80;99.90
3919;DHT22;1974;48.670;8.994;2023-08-07T00:57:09;10.80;99.90
3919;DHT22;1974;48.670;8.994;2023-08-07T00:59:36;10.90;99.90
3919;DHT22;1974;48.670;8.994;2023-08-07T01:02:05;10.90;99.90
3919;DHT22;1974;48.670;8.994;2023-08-07T01:04:32;10.90;99.90
3919;DHT22;1974;48.670;8.994;2023-08-07T01:06:59;10.90;99.90
3919;DHT22;1974;48.670;8.994;2023-08-07T01:09:26;10.80;99.90
3919;DHT22;1974;48.670;8.994;2023-08-07T01:11:57;10.90;99.90
3919;DHT22;1974;48.670;8.994;2023-08-07T01:14:33;10.90;99.90
3919;DHT22;1974;48.670;8.994;2023-08-07T01:17:08;10.90;99.90
3919;DHT22;1974;48.670;8.994;2023-08-07T01:19:36;10.90;99.90
3919;DHT22;1974;48.670;8.994;2023-08-07T01:22:06;10.90;99.90
3919;DHT22;1974;48.670;8.994;2023-08-07T01:24:33;10.90;99.90
3919;DHT22;1974;48.670;8.994;2023-08-07T01:27:07;11.00;99.90
3919;DHT22;1974;48.670;8.994;2023-08-07T01:29:42;11.00;99.90
3919;DHT22;1974;48.670;8.994;2023-08-07T01:32:11;11.00;99.90
3919;DHT22;1974;48.670;8.994;2023-08-07T01:34:41;11.00;99.90
3919;DHT22;1974;48.670;8.994;2023-08-07T01:37:10;11.00;99.90
3919;DHT22;1974;48.670;8.994;2023-08-07T01:39:39;11.00;99.90
3919;DHT22;1974;48.670;8.994;2023-08-07T01:42:07;11.00;99.90
3919;DHT22;1974;48.670;8.994;2023-08-07T01:44:36;11.10;99.90
3919;DHT22;1974;48.670;8.994;2023-08-07T01:47:03;11.10;99.90
3919;DHT22;1974;48.670;8.994;2023-08-07T01:49:30;11.10;99.90
3919;DHT22;1974;48.670;8.994;2023-08-07T01:51:57;11.10;99.90
3919;DHT22;1974;48.670;8.994;2023-08-07T01:54:25;11.10;99.90
3919;DHT22;1974;48.670;8.994;2023-08-07T01:56:51;11.10;99.90
3919;DHT22;1974;48.670;8.994;2023-08-07T01:59:18;11.10;99.90
3919;DHT22;1974;48.670;8.994;2023-08-07T02:01:45;11.10;99.90
3919;DHT22;1974;48.670;8.994;2023-08-07T02:04:12;11.10;99.90
3919;DHT22;1974;48.670;8.994;2023-08-07T02:06:38;11.20;99.90
3919;DHT22;1974;48.670;8.994;2023-08-07T02:09:05;11.20;99.90
3919;DHT22;1974;48.670;8.994;2023-08-07T02:11:33;11.20;99.90
3919;DHT22;1974;48.670;8.994;2023-08-07T02:14:00;11.30;99.90
3919;DHT22;1974;48.670;8.994;2023-08-07T02:16:27;11.10;99.90
3919;DHT22;1974;48.670;8.994;2023-08-07T02:18:53;11.20;99.90
3919;DHT22;1974;48.670;8.994;2023-08-07T02:21:20;11.20;99.90
3919;DHT22;1974;48.670;8.994;2023-08-07T02:23:47;11.20;99.90
3919;DHT22;1974;48.670;8.994;2023-08-07T02:26:14;11.20;99.90
3919;DHT22;1974;48.670;8.994;2023-08-07T02:28:42;11.30;99.90
3919;DHT22;1974;48.670;8.994;2023-08-07T02:31:08;11.30;99.90
3919;DHT22;1974;48.670;8.994;2023-08-07T02:33:35;11.30;99.90
3919;DHT22;1974;48.670;8.994;2023-08-07T02:36:02;11.30;99.90
3919;DHT22;1974;48.670;8.994;2023-08-07T02:38:29;11.30;99.90
3919;DHT22;1974;48.670;8.994;2023-08-07T02:40:56;11.30;99.90
3919;DHT22;1974;48.670;8.994;2023-08-07T02:43:22;11.30;99.90
3919;DHT22;1974;48.670;8.994;2023-08-07T02:45:50;11.30;99.90
3919;DHT22;1974;48.670;8.994;2023-08-07T02:48:17;11.30;99.90
3919;DHT22;1974;48.670;8.994;2023-08-07T02:50:44;11.30;99.90
3919;DHT22;1974;48.670;8.994;2023-08-07T02:53:11;11.30;99.90
3919;DHT22;1974;48.670;8.994;2023-08-07T02:55:38;11.30;99.90
3919;DHT22;1974;48.670;8.994;2023-08-07T02:58:05;11.30;99.90
3919;DHT22;1974;48.670;8.994;2023-08-07T03:00:31;11.30;99.90
3919;DHT22;1974;48.670;8.994;2023-08-07T03:03:02;11.30;99.90
3919;DHT22;1974;48.670;8.994;2023-08-07T03:05:29;11.20;99.90
3919;DHT22;1974;48.670;8.994;2023-08-07T03:07:56;11.20;99.90
3919;DHT22;1974;48.670;8.994;2023-08-07T03:10:22;11.30;99.90
3919;DHT22;1974;48.670;8.994;2023-08-07T03:12:49;11.30;99.90
3919;DHT22;1974;48.670;8.994;2023-08-07T03:15:16;11.40;99.90
3919;DHT22;1974;48.670;8.994;2023-08-07T03:17:43;11.30;99.90
3919;DHT22;1974;48.670;8.994;2023-08-07T03:20:12;11.40;99.90
3919;DHT22;1974;48.670;8.994;2023-08-07T03:22:38;11.40;99.90
3919;DHT22;1974;48.670;8.994;2023-08-07T03:25:06;11.40;99.90
3919;DHT22;1974;48.670;8.994;2023-08-07T03:27:32;11.40;99.90
3919;DHT22;1974;48.670;8.994;2023-08-07T03:29:59;11.40;99.90
3919;DHT22;1974;48.670;8.994;2023-08-07T03:32:26;11.40;99.90
3919;DHT22;1974;48.670;8.994;2023-08-07T03:34:53;11.40;99.90
3919;DHT22;1974;48.670;8.994;2023-08-07T03:37:21;11.40;99.90
3919;DHT22;1974;48.670;8.994;2023-08-07T03:39:47;11.40;99.90
3919;DHT22;1974;48.670;8.994;2023-08-07T03:42:15;11.40;99.90
3919;DHT22;1974;48.670;8.994;2023-08-07T03:44:42;11.40;99.90
3919;DHT22;1974;48.670;8.994;2023-08-07T03:47:09;11.50;99.90
3919;DHT22;1974;48.670;8.994;2023-08-07T03:49:35;11.50;99.90
3919;DHT22;1974;48.670;8.994;2023-08-07T03:52:02;11.50;99.90
3919;DHT22;1974;48.670;8.994;2023-08-07T03:54:31;11.50;99.90
3919;DHT22;1974;48.670;8.994;2023-08-07T03:56:57;11.50;99.90
3919;DHT22;1974;48.670;8.994;2023-08-07T03:59:24;11.50;99.90
3919;DHT22;1974;48.670;8.994;2023-08-07T04:01:51;11.50;99.90
3919;DHT22;1974;48.670;8.994;2023-08-07T04:04:18;11.50;99.90
3919;DHT22;1974;48.670;8.994;2023-08-07T04:06:44;11.50;99.90
3919;DHT22;1974;48.670;8.994;2023-08-07T04:09:11;11.40;99.90
3919;DHT22;1974;48.670;8.994;2023-08-07T04:11:40;11.30;99.90
3919;DHT22;1974;48.670;8.994;2023-08-07T04:14:07;11.40;99.90
3919;DHT22;1974;48.670;8.994;2023-08-07T04:16:34;11.20;99.90
3919;DHT22;1974;48.670;8.994;2023-08-07T04:19:02;11.20;99.90
3919;DHT22;1974;48.670;8.994;2023-08-07T04:21:30;11.30;99.90
3919;DHT22;1974;48.670;8.994;2023-08-07T04:23:56;11.30;99.90
3919;DHT22;1974;48.670;8.994;2023-08-07T04:26:25;11.30;99.90
3919;DHT22;1974;48.670;8.994;2023-08-07T04:28:53;11.10;99.90
3919;DHT22;1974;48.670;8.994;2023-08-07T04:31:20;11.20;99.90
3919;DHT22;1974;48.670;8.994;2023-08-07T04:33:47;11.20;99.90
3919;DHT22;1974;48.670;8.994;2023-08-07T04:36:13;11.20;99.90
3919;DHT22;1974;48.670;8.994;2023-08-07T04:38:40;11.20;99.90
3919;DHT22;1974;48.670;8.994;2023-08-07T04:41:07;11.20;99.90
3919;DHT22;1974;48.670;8.994;2023-08-07T04:43:34;11.20;99.90
3919;DHT22;1974;48.670;8.994;2023-08-07T04:46:02;11.30;99.90
3919;DHT22;1974;48.670;8.994;2023-08-07T04:48:28;11.20;99.90
3919;DHT22;1974;48.670;8.994;2023-08-07T04:50:56;11.20;99.90
3919;DHT22;1974;48.670;8.994;2023-08-07T04:53:24;11.30;99.90
3919;DHT22;1974;48.670;8.994;2023-08-07T04:55:50;11.30;99.90
3919;DHT22;1974;48.670;8.994;2023-08-07T04:58:17;11.30;99.90
3919;DHT22;1974;48.670;8.994;2023-08-07T05:00:44;11.30;99.90
3919;DHT22;1974;48.670;8.994;2023-08-07T05:03:12;11.30;99.90
3919;DHT22;1974;48.670;8.994;2023-08-07T05:05:40;11.40;99.90
3919;DHT22;1974;48.670;8.994;2023-08-07T05:08:07;11.40;99.90
3919;DHT22;1974;48.670;8.994;2023-08-07T05:10:34;11.40;99.90
3919;DHT22;1974;48.670;8.994;2023-08-07T05:13:01;11.50;99.90
3919;DHT22;1974;48.670;8.994;2023-08-07T05:15:28;11.50;99.90
3919;DHT22;1974;48.670;8.994;2023-08-07T05:17:56;11.60;99.90
3919;DHT22;1974;48.670;8.994;2023-08-07T05:20:24;11.50;99.90
3919;DHT22;1974;48.670;8.994;2023-08-07T05:22:51;11.60;99.90
3919;DHT22;1974;48.670;8.994;2023-08-07T05:25:18;11.60;99.90
3919;DHT22;1974;48.670;8.994;2023-08-07T05:27:45;11.70;99.90
3919;DHT22;1974;48.670;8.994;2023-08-07T05:30:12;11.80;99.90
3919;DHT22;1974;48.670;8.994;2023-08-07T05:32:39;11.80;99.90
3919;DHT22;1974;48.670;8.994;2023-08-07T05:35:07;11.70;99.90
3919;DHT22;1974;48.670;8.994;2023-08-07T05:37:36;11.90;99.90
3919;DHT22;1974;48.670;8.994;2023-08-07T05:40:04;11.90;99.90
3919;DHT22;1974;48.670;8.994;2023-08-07T05:42:31;12.00;99.90
3919;DHT22;1974;48.670;8.994;2023-08-07T05:44:58;12.10;99.90
3919;DHT22;1974;48.670;8.994;2023-08-07T05:47:25;12.10;99.90
3919;DHT22;1974;48.670;8.994;2023-08-07T05:49:52;12.10;99.90
3919;DHT22;1974;48.670;8.994;2023-08-07T05:52:18;12.20;99.90
3919;DHT22;1974;48.670;8.994;2023-08-07T05:54:47;12.30;99.90
3919;DHT22;1974;48.670;8.994;2023-08-07T05:57:14;12.30;99.90
3919;DHT22;1974;48.670;8.994;2023-08-07T05:59:41;12.40;99.90
3919;DHT22;1974;48.670;8.994;2023-08-07T06:02:07;12.40;99.90
3919;DHT22;1974;48.670;8.994;2023-08-07T06:04:36;12.50;99.90
3919;DHT22;1974;48.670;8.994;2023-08-07T06:07:03;12.50;99.90
3919;DHT22;1974;48.670;8.994;2023-08-07T06:09:30;12.50;99.90
3919;DHT22;1974;48.670;8.994;2023-08-07T06:11:58;12.60;99.90
3919;DHT22;1974;48.670;8.994;2023-08-07T06:14:25;12.60;99.90
3919;DHT22;1974;48.670;8.994;2023-08-07T06:16:52;12.60;99.90
3919;DHT22;1974;48.670;8.994;2023-08-07T06:19:19;12.70;99.90
3919;DHT22;1974;48.670;8.994;2023-08-07T06:21:47;12.70;99.90
3919;DHT22;1974;48.670;8.994;2023-08-07T06:24:14;12.80;99.90
3919;DHT22;1974;48.670;8.994;2023-08-07T06:26:41;12.80;99.90
3919;DHT22;1974;48.670;8.994;2023-08-07T06:29:09;12.80;99.90
3919;DHT22;1974;48.670;8.994;2023-08-07T06:31:36;12.90;99.90
3919;DHT22;1974;48.670;8.994;2023-08-07T06:34:02;12.90;99.90
3919;DHT22;1974;48.670;8.994;2023-08-07T06:36:29;12.90;99.90
3919;DHT22;1974;48.670;8.994;2023-08-07T06:38:56;12.90;99.90
3919;DHT22;1974;48.670;8.994;2023-08-07T06:41:23;12.90;99.90
3919;DHT22;1974;48.670;8.994;2023-08-07T06:43:49;13.00;99.90
3919;DHT22;1974;48.670;8.994;2023-08-07T06:46:18;13.00;99.90
3919;DHT22;1974;48.670;8.994;2023-08-07T06:48:49;13.00;99.90
3919;DHT22;1974;48.670;8.994;2023-08-07T06:51:16;13.00;99.90
3919;DHT22;1974;48.670;8.994;2023-08-07T06:53:43;13.10;99.90
3919;DHT22;1974;48.670;8.994;2023-08-07T06:56:10;13.20;99.90
3919;DHT22;1974;48.670;8.994;2023-08-07T06:58:36;13.30;99.90
3919;DHT22;1974;48.670;8.994;2023-08-07T07:01:03;13.30;99.90
3919;DHT22;1974;48.670;8.994;2023-08-07T07:03:31;13.30;99.90
3919;DHT22;1974;48.670;8.994;2023-08-07T07:05:58;13.50;99.90
3919;DHT22;1974;48.670;8.994;2023-08-07T07:08:25;13.60;99.90
3919;DHT22;1974;48.670;8.994;2023-08-07T07:10:51;13.60;99.90
3919;DHT22;1974;48.670;8.994;2023-08-07T07:13:18;13.60;99.90
3919;DHT22;1974;48.670;8.994;2023-08-07T07:15:45;13.70;99.90
3919;DHT22;1974;48.670;8.994;2023-08-07T07:18:12;13.90;99.90
3919;DHT22;1974;48.670;8.994;2023-08-07T07:20:40;14.20;99.90
3919;DHT22;1974;48.670;8.994;2023-08-07T07:23:07;14.40;99.90
3919;DHT22;1974;48.670;8.994;2023-08-07T07:25:34;14.50;99.90
3919;DHT22;1974;48.670;8.994;2023-08-07T07:28:00;14.80;99.90
3919;DHT22;1974;48.670;8.994;2023-08-07T07:30:27;14.90;99.90
3919;DHT22;1974;48.670;8.994;2023-08-07T07:32:54;15.00;99.90
3919;DHT22;1974;48.670;8.994;2023-08-07T07:35:21;15.10;99.90
3919;DHT22;1974;48.670;8.994;2023-08-07T07:37:49;15.10;99.90
3919;DHT22;1974;48.670;8.994;2023-08-07T07:40:15;15.20;99.90
3919;DHT22;1974;48.670;8.994;2023-08-07T07:42:44;15.20;99.90
3919;DHT22;1974;48.670;8.994;2023-08-07T07:45:11;15.20;99.90
3919;DHT22;1974;48.670;8.994;2023-08-07T07:47:38;15.30;99.90
3919;DHT22;1974;48.670;8.994;2023-08-07T07:50:06;15.50;99.90
3919;DHT22;1974;48.670;8.994;2023-08-07T07:52:34;15.50;99.90
3919;DHT22;1974;48.670;8.994;2023-08-07T07:55:02;15.50;99.90
3919;DHT22;1974;48.670;8.994;2023-08-07T07:57:29;15.50;99.90
3919;DHT22;1974;48.670;8.994;2023-08-07T07:59:56;15.50;99.90
3919;DHT22;1974;48.670;8.994;2023-08-07T08:02:23;15.50;99.90
3919;DHT22;1974;48.670;8.994;2023-08-07T08:04:51;15.40;99.90
3919;DHT22;1974;48.670;8.994;2023-08-07T08:07:17;15.30;99.90
3919;DHT22;1974;48.670;8.994;2023-08-07T08:09:45;15.40;99.90
3919;DHT22;1974;48.670;8.994;2023-08-07T08:12:14;15.50;99.90
3919;DHT22;1974;48.670;8.994;2023-08-07T08:14:40;15.60;99.90
3919;DHT22;1974;48.670;8.994;2023-08-07T08:17:07;15.50;99.90
3919;DHT22;1974;48.670;8.994;2023-08-07T08:19:34;15.50;99.90
3919;DHT22;1974;48.670;8.994;2023-08-07T08:22:01;15.40;99.90
3919;DHT22;1974;48.670;8.994;2023-08-07T08:24:28;15.50;99.90
3919;DHT22;1974;48.670;8.994;2023-08-07T08:26:54;15.40;99.90
3919;DHT22;1974;48.670;8.994;2023-08-07T08:29:23;15.50;99.90
3919;DHT22;1974;48.670;8.994;2023-08-07T08:31:49;15.50;99.90
3919;DHT22;1974;48.670;8.994;2023-08-07T08:34:18;15.60;99.90
3919;DHT22;1974;48.670;8.994;2023-08-07T08:36:45;15.80;99.90
3919;DHT22;1974;48.670;8.994;2023-08-07T08:39:12;16.00;99.90
3919;DHT22;1974;48.670;8.994;2023-08-07T08:41:39;16.30;99.90
3919;DHT22;1974;48.670;8.994;2023-08-07T08:44:07;16.60;99.90
3919;DHT22;1974;48.670;8.994;2023-08-07T08:46:36;16.90;99.90
3919;DHT22;1974;48.670;8.994;2023-08-07T08:49:04;17.00;99.90
3919;DHT22;1974;48.670;8.994;2023-08-07T08:51:32;17.10;99.90
3919;DHT22;1974;48.670;8.994;2023-08-07T08:53:59;17.20;99.90
3919;DHT22;1974;48.670;8.994;2023-08-07T08:56:27;17.60;99.90
3919;DHT22;1974;48.670;8.994;2023-08-07T08:58:55;17.80;99.90
3919;DHT22;1974;48.670;8.994;2023-08-07T09:01:23;17.80;99.90
3919;DHT22;1974;48.670;8.994;2023-08-07T09:03:53;18.00;99.90
3919;DHT22;1974;48.670;8.994;2023-08-07T09:06:22;18.10;99.90
3919;DHT22;1974;48.670;8.994;2023-08-07T09:08:50;18.20;99.90
3919;DHT22;1974;48.670;8.994;2023-08-07T09:11:18;18.30;99.90
3919;DHT22;1974;48.670;8.994;2023-08-07T09:13:47;18.40;99.90
3919;DHT22;1974;48.670;8.994;2023-08-07T09:16:15;18.40;99.90
3919;DHT22;1974;48.670;8.994;2023-08-07T09:18:42;18.30;99.90
3919;DHT22;1974;48.670;8.994;2023-08-07T09:21:11;18.20;99.90
3919;DHT22;1974;48.670;8.994;2023-08-07T09:23:38;18.20;99.90
3919;DHT22;1974;48.670;8.994;2023-08-07T09:26:05;18.40;99.90
3919;DHT22;1974;48.670;8.994;2023-08-07T09:28:33;18.60;99.90
3919;DHT22;1974;48.670;8.994;2023-08-07T09:31:01;18.60;99.90
3919;DHT22;1974;48.670;8.994;2023-08-07T09:33:29;18.60;99.90
3919;DHT22;1974;48.670;8.994;2023-08-07T09:35:57;18.50;99.90
3919;DHT22;1974;48.670;8.994;2023-08-07T09:38:28;18.40;99.90
3919;DHT22;1974;48.670;8.994;2023-08-07T09:40:57;18.20;99.90
3919;DHT22;1974;48.670;8.994;2023-08-07T09:43:24;18.20;99.90
3919;DHT22;1974;48.670;8.994;2023-08-07T09:45:51;18.30;99.90
3919;DHT22;1974;48.670;8.994;2023-08-07T09:48:22;18.40;99.90
3919;DHT22;1974;48.670;8.994;2023-08-07T09:50:49;18.20;99.90
3919;DHT22;1974;48.670;8.994;2023-08-07T09:53:16;17.90;99.90
3919;DHT22;1974;48.670;8.994;2023-08-07T09:55:44;17.70;99.90
3919;DHT22;1974;48.670;8.994;2023-08-07T09:58:12;17.50;99.90
3919;DHT22;1974;48.670;8.994;2023-08-07T10:00:40;17.30;99.90
3919;DHT22;1974;48.670;8.994;2023-08-07T10:03:08;17.30;99.90
3919;DHT22;1974;48.670;8.994;2023-08-07T10:05:35;17.30;99.90
3919;DHT22;1974;48.670;8.994;2023-08-07T10:08:03;17.40;99.90
3919;DHT22;1974;48.670;8.994;2023-08-07T10:10:32;17.30;99.90
3919;DHT22;1974;48.670;8.994;2023-08-07T10:13:01;17.20;99.90
3919;DHT22;1974;48.670;8.994;2023-08-07T10:15:29;17.40;99.90
3919;DHT22;1974;48.670;8.994;2023-08-07T10:17:56;17.50;99.90
3919;DHT22;1974;48.670;8.994;2023-08-07T10:20:24;17.60;99.90
3919;DHT22;1974;48.670;8.994;2023-08-07T10:22:53;17.70;99.90
3919;DHT22;1974;48.670;8.994;2023-08-07T10:25:21;17.70;99.90
3919;DHT22;1974;48.670;8.994;2023-08-07T10:27:52;17.80;99.90
3919;DHT22;1974;48.670;8.994;2023-08-07T10:30:22;17.80;99.90
3919;DHT22;1974;48.670;8.994;2023-08-07T10:32:50;17.60;99.90
3919;DHT22;1974;48.670;8.994;2023-08-07T10:35:30;17.60;99.90
3919;DHT22;1974;48.670;8.994;2023-08-07T10:38:05;17.60;99.90
3919;DHT22;1974;48.670;8.994;2023-08-07T10:40:33;17.70;99.90
3919;DHT22;1974;48.670;8.994;2023-08-07T10:43:12;17.90;99.90
3919;DHT22;1974;48.670;8.994;2023-08-07T10:45:40;18.00;99.90
3919;DHT22;1974;48.670;8.994;2023-08-07T10:48:08;18.00;99.90
3919;DHT22;1974;48.670;8.994;2023-08-07T10:50:51;17.80;99.90
3919;DHT22;1974;48.670;8.994;2023-08-07T10:53:29;17.70;99.90
3919;DHT22;1974;48.670;8.994;2023-08-07T10:55:56;17.60;99.90
3919;DHT22;1974;48.670;8.994;2023-08-07T10:58:24;17.50;99.90
3919;DHT22;1974;48.670;8.994;2023-08-07T11:01:17;17.40;99.90
3919;DHT22;1974;48.670;8.994;2023-08-07T11:03:44;17.70;99.90
3919;DHT22;1974;48.670;8.994;2023-08-07T11:06:11;17.90;99.90
3919;DHT22;1974;48.670;8.994;2023-08-07T11:08:38;17.90;99.90
3919;DHT22;1974;48.670;8.994;2023-08-07T11:11:06;17.80;99.90
3919;DHT22;1974;48.670;8.994;2023-08-07T11:13:33;17.70;99.90
3919;DHT22;1974;48.670;8.994;2023-08-07T11:16:02;17.70;99.90
3919;DHT22;1974;48.670;8.994;2023-08-07T11:18:29;17.60;99.90
3919;DHT22;1974;48.670;8.994;2023-08-07T11:20:56;17.50;99.90
3919;DHT22;1974;48.670;8.994;2023-08-07T11:23:23;17.30;99.90
3919;DHT22;1974;48.670;8.994;2023-08-07T11:25:51;17.30;99.90
3919;DHT22;1974;48.670;8.994;2023-08-07T11:28:18;17.30;99.90
3919;DHT22;1974;48.670;8.994;2023-08-07T11:30:48;17.50;99.90
3919;DHT22;1974;48.670;8.994;2023-08-07T11:33:17;17.60;99.90
3919;DHT22;1974;48.670;8.994;2023-08-07T11:35:44;17.60;99.90
3919;DHT22;1974;48.670;8.994;2023-08-07T11:38:11;17.70;99.90
3919;DHT22;1974;48.670;8.994;2023-08-07T11:40:38;17.60;99.90
3919;DHT22;1974;48.670;8.994;2023-08-07T11:43:05;17.50;99.90
3919;DHT22;1974;48.670;8.994;2023-08-07T11:45:31;17.30;99.90
3919;DHT22;1974;48.670;8.994;2023-08-07T11:47:58;17.10;99.90
3919;DHT22;1974;48.670;8.994;2023-08-07T11:50:29;17.00;99.90
3919;DHT22;1974;48.670;8.994;2023-08-07T11:52:55;16.80;99.90
3919;DHT22;1974;48.670;8.994;2023-08-07T11:55:28;16.70;99.90
3919;DHT22;1974;48.670;8.994;2023-08-07T11:57:55;16.60;99.90
3919;DHT22;1974;48.670;8.994;2023-08-07T12:00:24;16.50;99.90
3919;DHT22;1974;48.670;8.994;2023-08-07T12:02:52;16.40;99.90
3919;DHT22;1974;48.670;8.994;2023-08-07T12:05:19;16.30;99.90
3919;DHT22;1974;48.670;8.994;2023-08-07T12:07:47;16.30;99.90
3919;DHT22;1974;48.670;8.994;2023-08-07T12:10:14;16.20;99.90
3919;DHT22;1974;48.670;8.994;2023-08-07T12:12:42;16.20;99.90
3919;DHT22;1974;48.670;8.994;2023-08-07T12:15:10;16.10;99.90
3919;DHT22;1974;48.670;8.994;2023-08-07T12:17:37;16.00;99.90
3919;DHT22;1974;48.670;8.994;2023-08-07T12:20:05;15.90;99.90
3919;DHT22;1974;48.670;8.994;2023-08-07T12:22:33;15.80;99.90
3919;DHT22;1974;48.670;8.994;2023-08-07T12:25:04;15.60;99.90
3919;DHT22;1974;48.670;8.994;2023-08-07T12:27:30;15.50;99.90
3919;DHT22;1974;48.670;8.994;2023-08-07T12:29:57;15.40;99.90
3919;DHT22;1974;48.670;8.994;2023-08-07T12:32:24;15.40;99.90
3919;DHT22;1974;48.670;8.994;2023-08-07T12:34:51;15.50;99.90
3919;DHT22;1974;48.670;8.994;2023-08-07T12:37:19;15.60;99.90
3919;DHT22;1974;48.670;8.994;2023-08-07T12:39:45;15.80;99.90
3919;DHT22;1974;48.670;8.994;2023-08-07T12:42:14;15.90;99.90
3919;DHT22;1974;48.670;8.994;2023-08-07T12:44:40;16.10;99.90
3919;DHT22;1974;48.670;8.994;2023-08-07T12:47:08;16.10;99.90
3919;DHT22;1974;48.670;8.994;2023-08-07T12:49:35;16.00;99.90
3919;DHT22;1974;48.670;8.994;2023-08-07T12:52:02;15.80;99.90
3919;DHT22;1974;48.670;8.994;2023-08-07T12:54:29;15.80;99.90
3919;DHT22;1974;48.670;8.994;2023-08-07T12:56:56;15.70;99.90
3919;DHT22;1974;48.670;8.994;2023-08-07T12:59:25;15.40;99.90
3919;DHT22;1974;48.670;8.994;2023-08-07T13:01:51;15.10;99.90
3919;DHT22;1974;48.670;8.994;2023-08-07T13:04:19;14.90;99.90
3919;DHT22;1974;48.670;8.994;2023-08-07T13:06:46;14.70;99.90
3919;DHT22;1974;48.670;8.994;2023-08-07T13:09:14;14.70;99.90
3919;DHT22;1974;48.670;8.994;2023-08-07T13:11:41;14.70;99.90
3919;DHT22;1974;48.670;8.994;2023-08-07T13:14:08;14.80;99.90
3919;DHT22;1974;48.670;8.994;2023-08-07T13:16:36;14.90;99.90
3919;DHT22;1974;48.670;8.994;2023-08-07T13:19:03;15.20;99.90
3919;DHT22;1974;48.670;8.994;2023-08-07T13:21:30;15.40;99.90
3919;DHT22;1974;48.670;8.994;2023-08-07T13:23:56;15.80;99.90
3919;DHT22;1974;48.670;8.994;2023-08-07T13:26:23;16.10;99.90
3919;DHT22;1974;48.670;8.994;2023-08-07T13:28:50;16.30;99.90
3919;DHT22;1974;48.670;8.994;2023-08-07T13:31:17;16.30;99.90
3919;DHT22;1974;48.670;8.994;2023-08-07T13:33:45;16.40;99.90
3919;DHT22;1974;48.670;8.994;2023-08-07T13:36:12;16.20;99.90
3919;DHT22;1974;48.670;8.994;2023-08-07T13:38:38;16.20;99.90
3919;DHT22;1974;48.670;8.994;2023-08-07T13:41:05;16.20;99.90
3919;DHT22;1974;48.670;8.994;2023-08-07T13:43:33;16.30;99.90
3919;DHT22;1974;48.670;8.994;2023-08-07T13:46:00;16.40;99.90
3919;DHT22;1974;48.670;8.994;2023-08-07T13:48:26;16.50;99.90
3919;DHT22;1974;48.670;8.994;2023-08-07T13:50:55;16.60;99.90
3919;DHT22;1974;48.670;8.994;2023-08-07T13:53:21;16.70;99.90
3919;DHT22;1974;48.670;8.994;2023-08-07T13:55:49;16.70;99.90
3919;DHT22;1974;48.670;8.994;2023-08-07T13:58:16;16.70;99.90
3919;DHT22;1974;48.670;8.994;2023-08-07T14:00:43;16.80;99.90
3919;DHT22;1974;48.670;8.994;2023-08-07T14:03:09;16.80;99.90
3919;DHT22;1974;48.670;8.994;2023-08-07T14:05:38;16.90;99.90
3919;DHT22;1974;48.670;8.994;2023-08-07T14:08:06;16.90;99.90
3919;DHT22;1974;48.670;8.994;2023-08-07T14:10:34;16.80;99.90
3919;DHT22;1974;48.670;8.994;2023-08-07T14:13:02;16.80;99.90
3919;DHT22;1974;48.670;8.994;2023-08-07T14:15:28;16.80;99.90
3919;DHT22;1974;48.670;8.994;2023-08-07T14:17:55;16.90;99.90
3919;DHT22;1974;48.670;8.994;2023-08-07T14:20:23;16.90;99.90
3919;DHT22;1974;48.670;8.994;2023-08-07T14:22:49;16.90;99.90
3919;DHT22;1974;48.670;8.994;2023-08-07T14:25:18;16.90;99.90
3919;DHT22;1974;48.670;8.994;2023-08-07T14:27:46;16.90;99.90
3919;DHT22;1974;48.670;8.994;2023-08-07T14:30:14;16.80;99.90
3919;DHT22;1974;48.670;8.994;2023-08-07T14:32:41;16.80;99.90
3919;DHT22;1974;48.670;8.994;2023-08-07T14:35:08;16.80;99.90
3919;DHT22;1974;48.670;8.994;2023-08-07T14:37:35;16.80;99.90
3919;DHT22;1974;48.670;8.994;2023-08-07T14:40:02;16.80;99.90
3919;DHT22;1974;48.670;8.994;2023-08-07T14:42:30;16.80;99.90
3919;DHT22;1974;48.670;8.994;2023-08-07T14:44:57;16.70;99.90
3919;DHT22;1974;48.670;8.994;2023-08-07T14:47:24;16.70;99.90
3919;DHT22;1974;48.670;8.994;2023-08-07T14:49:51;16.70;99.90
3919;DHT22;1974;48.670;8.994;2023-08-07T14:52:18;16.70;99.90
3919;DHT22;1974;48.670;8.994;2023-08-07T14:54:45;16.60;99.90
3919;DHT22;1974;48.670;8.994;2023-08-07T14:57:11;16.60;99.90
3919;DHT22;1974;48.670;8.994;2023-08-07T14:59:40;16.50;99.90
3919;DHT22;1974;48.670;8.994;2023-08-07T15:02:07;16.40;99.90
3919;DHT22;1974;48.670;8.994;2023-08-07T15:04:34;16.50;99.90
3919;DHT22;1974;48.670;8.994;2023-08-07T15:07:00;16.50;99.90
3919;DHT22;1974;48.670;8.994;2023-08-07T15:09:27;16.60;99.90
3919;DHT22;1974;48.670;8.994;2023-08-07T15:11:54;16.60;99.90
3919;DHT22;1974;48.670;8.994;2023-08-07T15:14:21;16.70;99.90
3919;DHT22;1974;48.670;8.994;2023-08-07T15:16:49;16.70;99.90
3919;DHT22;1974;48.670;8.994;2023-08-07T15:19:16;16.80;99.90
3919;DHT22;1974;48.670;8.994;2023-08-07T15:21:43;16.90;99.90
3919;DHT22;1974;48.670;8.994;2023-08-07T15:24:09;17.00;99.90
3919;DHT22;1974;48.670;8.994;2023-08-07T15:26:36;17.00;99.90
3919;DHT22;1974;48.670;8.994;2023-08-07T15:29:03;17.00;99.90
3919;DHT22;1974;48.670;8.994;2023-08-07T15:31:30;17.00;99.90
3919;DHT22;1974;48.670;8.994;2023-08-07T15:33:59;17.00;99.90
3919;DHT22;1974;48.670;8.994;2023-08-07T15:36:25;17.00;99.90
3919;DHT22;1974;48.670;8.994;2023-08-07T15:38:52;17.00;99.90
3919;DHT22;1974;48.670;8.994;2023-08-07T15:41:20;17.00;99.90
3919;DHT22;1974;48.670;8.994;2023-08-07T15:43:47;17.00;99.90
3919;DHT22;1974;48.670;8.994;2023-08-07T15:46:14;17.00;99.90
3919;DHT22;1974;48.670;8.994;2023-08-07T15:48:41;17.10;99.90
3919;DHT22;1974;48.670;8.994;2023-08-07T15:51:10;17.00;99.90
3919;DHT22;1974;48.670;8.994;2023-08-07T15:53:36;17.00;99.90
3919;DHT22;1974;48.670;8.994;2023-08-07T15:56:03;17.10;99.90
3919;DHT22;1974;48.670;8.994;2023-08-07T15:58:30;17.00;99.90
3919;DHT22;1974;48.670;8.994;2023-08-07T16:00:57;17.00;99.90
3919;DHT22;1974;48.670;8.994;2023-08-07T16:03:23;17.10;99.90